Time;durP1;ratioP1;P1;durP2;ratioP2;P2;SDS_P1;SDS_P2;PMS_P1;PMS_P2;Temp;Humidity;BMP_temperature;BMP_pressure;BME280_temperature;BME280_humidity;BME280_pressure;Samples;Min_cycle;Max_cycle;Signal;HPM_P1;HPM_P2
2021/06/10 02:48:09;;;;;;;8.73;7.32;;;15.20;99.90;;;;;;5088436;22;93067;-87
2021/06/10 02:50:38;;;;;;;6.85;5.95;;;15.00;99.90;;;;;;4928285;28;92276;-87
2021/06/10 02:53:05;;;;;;;7.93;5.70;;;15.00;99.90;;;;;;4934360;28;91957;-87
2021/06/10 02:55:33;;;;;;;7.22;6.20;;;15.00;99.90;;;;;;4926741;28;92049;-88
2021/06/10 02:57:59;;;;;;;6.43;5.80;;;15.00;99.90;;;;;;4930212;28;91615;-85
2021/06/10 03:00:32;;;;;;;8.63;7.00;;;15.00;99.90;;;;;;4941404;28;93180;-87
2021/06/10 03:03:00;;;;;;;8.38;6.75;;;15.00;99.90;;;;;;4934718;28;92407;-87
2021/06/10 03:05:27;;;;;;;8.50;7.70;;;14.80;99.90;;;;;;4938052;28;91960;-88
2021/06/10 03:07:54;;;;;;;8.35;6.50;;;15.00;99.90;;;;;;4933466;28;92112;-87
2021/06/10 03:10:24;;;;;;;7.05;6.13;;;14.90;99.90;;;;;;4934058;28;94154;-88
2021/06/10 03:12:51;;;;;;;7.18;5.95;;;14.90;99.90;;;;;;4946817;28;94318;-87
2021/06/10 03:15:17;;;;;;;8.63;7.70;;;14.90;99.90;;;;;;4934915;28;92271;-88
2021/06/10 03:17:43;;;;;;;7.55;5.95;;;14.80;99.90;;;;;;4936814;28;92110;-87
2021/06/10 03:20:09;;;;;;;7.03;5.72;;;14.80;99.90;;;;;;4933817;28;92212;-87
2021/06/10 03:22:36;;;;;;;7.97;6.13;;;14.80;99.90;;;;;;4933483;28;92012;-87
2021/06/10 03:25:05;;;;;;;8.98;6.57;;;14.70;99.90;;;;;;4951427;28;92427;-86
2021/06/10 03:27:32;;;;;;;9.90;6.45;;;14.70;99.90;;;;;;4938225;28;91380;-86
2021/06/10 03:29:58;;;;;;;7.28;5.68;;;14.70;99.90;;;;;;4942391;28;92348;-86
2021/06/10 03:32:27;;;;;;;7.88;6.07;;;14.60;99.90;;;;;;4949047;28;92225;-86
2021/06/10 03:34:55;;;;;;;7.78;7.03;;;14.90;99.90;;;;;;4935251;28;93029;-86
2021/06/10 03:37:22;;;;;;;7.30;5.80;;;14.60;99.90;;;;;;4927102;28;92511;-85
2021/06/10 03:39:50;;;;;;;6.90;5.20;;;14.60;99.90;;;;;;4932716;28;93898;-87
2021/06/10 03:42:17;;;;;;;6.10;5.07;;;14.60;99.90;;;;;;4926083;28;92005;-86
2021/06/10 03:44:43;;;;;;;7.45;6.75;;;14.70;99.90;;;;;;4930963;28;91990;-86
2021/06/10 03:47:14;;;;;;;7.20;5.45;;;14.70;99.90;;;;;;4935440;28;91988;-86
2021/06/10 03:49:41;;;;;;;8.95;7.07;;;14.40;99.90;;;;;;4904933;28;92003;-88
2021/06/10 03:52:08;;;;;;;5.88;5.25;;;14.60;99.90;;;;;;4907128;28;92094;-86
2021/06/10 03:54:34;;;;;;;7.93;7.13;;;14.50;99.90;;;;;;4923367;28;92122;-84
2021/06/10 03:57:00;;;;;;;8.20;7.38;;;14.60;99.90;;;;;;4904651;28;91431;-88
2021/06/10 03:59:26;;;;;;;10.68;7.28;;;14.80;99.90;;;;;;4921035;28;92821;-86
2021/06/10 04:01:52;;;;;;;7.18;5.45;;;14.60;99.90;;;;;;4914523;28;92659;-86
2021/06/10 04:04:18;;;;;;;6.47;5.45;;;14.60;99.90;;;;;;4914602;28;92145;-85
2021/06/10 04:06:44;;;;;;;5.82;5.22;;;14.70;99.90;;;;;;4925551;28;91995;-86
2021/06/10 04:09:10;;;;;;;7.70;6.75;;;14.70;99.90;;;;;;4924389;28;92353;-86
2021/06/10 04:11:38;;;;;;;6.95;5.40;;;14.80;99.90;;;;;;4921759;28;93381;-86
2021/06/10 04:14:04;;;;;;;7.15;6.45;;;14.50;99.90;;;;;;4924837;28;92605;-86
2021/06/10 04:16:30;;;;;;;6.85;6.20;;;;;;;;;;4927879;28;91348;-87
2021/06/10 04:18:56;;;;;;;6.50;4.93;;;15.10;99.90;;;;;;4921089;28;92191;-86
2021/06/10 04:21:22;;;;;;;6.63;6.00;;;;;;;;;;4920745;28;92079;-87
2021/06/10 04:23:48;;;;;;;6.20;4.93;;;15.30;99.90;;;;;;4931210;28;92886;-87
2021/06/10 04:26:15;;;;;;;6.68;5.90;;;15.30;99.90;;;;;;4908737;28;92074;-86
2021/06/10 04:28:41;;;;;;;6.22;5.72;;;15.00;99.90;;;;;;4909044;28;91585;-86
2021/06/10 04:31:07;;;;;;;6.20;5.60;;;;;;;;;;4910107;28;93812;-86
2021/06/10 04:33:33;;;;;;;7.13;4.88;;;15.40;99.90;;;;;;4928440;28;92142;-88
2021/06/10 04:35:58;;;;;;;5.78;4.70;;;15.40;99.90;;;;;;4925131;28;92594;-86
2021/06/10 04:38:24;;;;;;;5.93;4.68;;;15.40;99.90;;;;;;4913449;28;91984;-86
2021/06/10 04:40:50;;;;;;;6.32;4.43;;;15.40;99.90;;;;;;4925529;28;91317;-87
2021/06/10 04:43:15;;;;;;;6.32;4.65;;;15.40;99.90;;;;;;4920040;28;91840;-84
2021/06/10 04:45:41;;;;;;;7.95;7.15;;;;;;;;;;4912799;28;92081;-86
2021/06/10 04:48:07;;;;;;;6.43;5.30;;;15.50;99.90;;;;;;4926360;28;93148;-85
2021/06/10 04:50:35;;;;;;;5.38;4.55;;;15.60;99.90;;;;;;4911968;28;92332;-86
2021/06/10 04:53:24;;;;;;;6.68;6.07;;;16.10;99.90;;;;;;4930536;28;91311;-86
2021/06/10 04:55:50;;;;;;;6.60;5.78;;;15.30;99.90;;;;;;4915598;28;91987;-85
2021/06/10 04:58:16;;;;;;;7.15;4.15;;;15.70;99.90;;;;;;4934360;28;92230;-86
2021/06/10 05:00:42;;;;;;;5.38;4.63;;;15.80;99.90;;;;;;4912220;28;91812;-83
2021/06/10 05:03:08;;;;;;;6.70;6.10;;;16.20;99.90;;;;;;4913171;28;91736;-84
2021/06/10 05:05:35;;;;;;;6.43;5.90;;;15.70;99.90;;;;;;4913489;28;91137;-84
2021/06/10 05:08:03;;;;;;;8.48;6.25;;;16.40;99.90;;;;;;4914497;28;92671;-86
2021/06/10 05:10:29;;;;;;;4.40;4.00;;;16.00;99.90;;;;;;4908806;28;92180;-88
2021/06/10 05:16:18;;;;;;;5.80;4.15;;;16.30;99.90;;;;;;4908835;28;91288;-87
2021/06/10 05:22:05;;;;;;;7.32;6.65;;;16.10;99.90;;;;;;4911884;28;91887;-85
2021/06/10 05:24:31;;;;;;;6.65;6.05;;;;;;;;;;4914175;28;91848;-85
2021/06/10 05:26:57;;;;;;;8.00;5.40;;;16.50;99.90;;;;;;4914416;28;91824;-86
2021/06/10 05:36:07;;;;;;;6.57;5.57;;;16.70;99.90;;;;;;4925552;28;91062;-86
2021/06/10 05:38:33;;;;;;;5.68;5.13;;;16.80;99.90;;;;;;4911878;28;92222;-88
2021/06/10 05:40:59;;;;;;;6.03;4.97;;;16.80;99.90;;;;;;4925569;28;94636;-88
2021/06/10 05:43:25;;;;;;;7.43;6.72;;;17.00;99.90;;;;;;4926092;28;95692;-86
2021/06/10 05:45:52;;;;;;;7.05;6.35;;;16.80;99.90;;;;;;4911891;28;91888;-86
2021/06/10 05:48:18;;;;;;;7.03;5.30;;;16.80;99.90;;;;;;4914990;28;91776;-86
2021/06/10 05:50:47;;;;;;;7.63;6.80;;;17.30;99.90;;;;;;4928444;28;93471;-86
2021/06/10 05:53:15;;;;;;;6.95;6.32;;;16.40;99.90;;;;;;4929174;28;92719;-88
2021/06/10 05:55:42;;;;;;;7.32;6.63;;;17.20;99.90;;;;;;4917104;28;91982;-85
2021/06/10 05:58:08;;;;;;;7.55;4.80;;;16.90;99.90;;;;;;4927396;28;91964;-86
2021/06/10 06:00:34;;;;;;;8.35;6.50;;;16.50;99.90;;;;;;4922022;28;92279;-86
2021/06/10 06:03:03;;;;;;;6.30;5.70;;;16.90;99.90;;;;;;4929528;28;92023;-86
2021/06/10 06:05:29;;;;;;;5.80;5.38;;;17.10;99.90;;;;;;4925519;28;93029;-86
2021/06/10 06:07:55;;;;;;;6.28;4.65;;;17.10;99.90;;;;;;4915678;28;92078;-84
2021/06/10 06:10:22;;;;;;;5.38;4.43;;;17.20;99.90;;;;;;4928306;28;92335;-84
2021/06/10 06:12:51;;;;;;;5.20;3.83;;;17.20;99.90;;;;;;4933378;28;91329;-84
2021/06/10 06:15:18;;;;;;;4.75;3.67;;;17.30;99.90;;;;;;4930719;28;91205;-84
2021/06/10 06:17:44;;;;;;;5.97;4.10;;;17.30;99.90;;;;;;4918351;28;92007;-83
2021/06/10 06:20:11;;;;;;;5.03;4.38;;;17.50;99.90;;;;;;4909279;28;91577;-84
2021/06/10 06:22:41;;;;;;;5.35;4.85;;;17.90;99.90;;;;;;4911668;28;95063;-85
2021/06/10 06:25:09;;;;;;;6.50;5.88;;;17.50;99.90;;;;;;4919243;28;91536;-85
2021/06/10 06:27:35;;;;;;;5.47;4.97;;;17.40;99.90;;;;;;4928196;28;91601;-84
2021/06/10 06:30:01;;;;;;;5.90;5.15;;;;;;;;;;4922309;28;93758;-85
2021/06/10 06:32:28;;;;;;;5.40;4.90;;;;;;;;;;4917800;28;92192;-85
2021/06/10 06:34:54;;;;;;;4.38;3.92;;;17.70;99.90;;;;;;4918934;28;91873;-83
2021/06/10 06:37:19;;;;;;;5.15;4.75;;;18.50;99.90;;;;;;4913252;28;92447;-85
2021/06/10 06:39:46;;;;;;;5.03;4.63;;;;;;;;;;4912397;28;92739;-86
2021/06/10 06:42:11;;;;;;;5.53;3.78;;;18.10;99.90;;;;;;4909980;28;92418;-85
2021/06/10 06:44:37;;;;;;;5.30;4.85;;;18.70;99.90;;;;;;4919175;28;92439;-85
2021/06/10 06:47:03;;;;;;;5.50;5.10;;;19.10;99.90;;;;;;4915901;28;92570;-85
2021/06/10 06:49:28;;;;;;;3.50;3.20;;;18.50;99.90;;;;;;4912883;28;95233;-85
2021/06/10 06:51:54;;;;;;;5.15;4.53;;;19.10;99.90;;;;;;4914601;28;92296;-84
2021/06/10 06:54:20;;;;;;;3.63;3.17;;;18.70;99.90;;;;;;4930644;28;92981;-83
2021/06/10 06:56:46;;;;;;;5.60;5.20;;;18.80;99.90;;;;;;4923140;28;92079;-85
2021/06/10 06:59:12;;;;;;;5.72;5.22;;;;;;;;;;4916175;28;92223;-85
2021/06/10 07:01:38;;;;;;;3.80;3.40;;;19.00;99.90;;;;;;4922153;28;91967;-84
2021/06/10 07:04:05;;;;;;;7.03;4.65;;;;;;;;;;4932271;28;92080;-84
2021/06/10 07:06:31;;;;;;;5.55;5.05;;;;;;;;;;4918347;28;92056;-86
2021/06/10 07:08:57;;;;;;;7.60;6.90;;;20.00;99.90;;;;;;4917654;28;92207;-86
2021/06/10 07:11:22;;;;;;;7.72;7.03;;;19.60;99.90;;;;;;4930952;28;91614;-86
2021/06/10 07:13:48;;;;;;;8.05;7.25;;;20.00;99.90;;;;;;4924216;28;91720;-87
2021/06/10 07:16:14;;;;;;;6.78;5.63;;;20.10;99.90;;;;;;4910837;28;92580;-86
2021/06/10 07:18:40;;;;;;;7.60;6.80;;;;;;;;;;4935721;28;92754;-85
2021/06/10 07:21:05;;;;;;;7.90;7.20;;;20.00;99.90;;;;;;4924029;28;92092;-85
2021/06/10 07:23:31;;;;;;;10.32;7.78;;;20.80;99.90;;;;;;4927542;28;92126;-84
2021/06/10 07:25:57;;;;;;;8.68;7.88;;;20.70;99.90;;;;;;4934893;28;92188;-86
2021/06/10 07:28:22;;;;;;;9.70;8.70;;;20.90;99.90;;;;;;4928194;28;92218;-86
2021/06/10 07:30:49;;;;;;;10.70;9.02;;;;;;;;;;4921879;28;92821;-86
2021/06/10 07:33:15;;;;;;;8.48;7.60;;;20.90;99.90;;;;;;4917459;28;91851;-86
2021/06/10 07:35:42;;;;;;;7.00;6.30;;;20.80;99.90;;;;;;4924190;28;90857;-86
2021/06/10 07:38:10;;;;;;;7.15;6.50;;;20.60;99.90;;;;;;4922252;28;93275;-86
2021/06/10 07:40:36;;;;;;;6.78;6.05;;;21.10;99.90;;;;;;4927144;28;92150;-86
2021/06/10 07:43:03;;;;;;;7.85;7.07;;;21.50;99.90;;;;;;4929152;28;93117;-87
2021/06/10 07:45:29;;;;;;;9.68;8.75;;;21.20;99.90;;;;;;4920246;28;91922;-87
2021/06/10 07:47:55;;;;;;;8.80;7.63;;;21.50;99.90;;;;;;4921928;28;92104;-85
2021/06/10 07:50:22;;;;;;;11.95;8.95;;;21.70;99.90;;;;;;4920086;28;92210;-85
2021/06/10 07:52:48;;;;;;;12.35;7.50;;;21.80;99.90;;;;;;4925505;28;92078;-86
2021/06/10 07:55:15;;;;;;;9.90;8.90;;;22.00;99.90;;;;;;4914589;28;92259;-85
2021/06/10 07:57:41;;;;;;;11.00;9.90;;;;;;;;;;4922375;28;92658;-85
2021/06/10 08:00:08;;;;;;;10.57;9.15;;;22.10;99.90;;;;;;4916730;28;92509;-86
2021/06/10 08:02:34;;;;;;;11.65;9.38;;;22.10;99.90;;;;;;4923096;28;92003;-86
2021/06/10 08:05:01;;;;;;;10.07;9.07;;;22.80;99.90;;;;;;4921535;28;91859;-87
2021/06/10 08:07:27;;;;;;;9.65;8.68;;;22.90;99.90;;;;;;4915134;28;92980;-86
2021/06/10 08:09:52;;;;;;;10.25;9.10;;;23.60;99.90;;;;;;4917860;28;94651;-86
2021/06/10 08:12:18;;;;;;;12.07;9.80;;;23.00;99.90;;;;;;4925720;28;92055;-87
2021/06/10 08:14:44;;;;;;;10.18;8.38;;;23.20;99.90;;;;;;4926021;28;92049;-85
2021/06/10 08:17:10;;;;;;;12.60;8.90;;;23.30;99.90;;;;;;4919353;28;92127;-87
2021/06/10 08:19:36;;;;;;;10.50;9.48;;;23.20;98.50;;;;;;4923373;28;92038;-86
2021/06/10 08:22:02;;;;;;;10.70;9.48;;;23.90;98.70;;;;;;4912451;28;92106;-87
2021/06/10 08:24:28;;;;;;;10.40;8.35;;;23.60;98.90;;;;;;4912953;28;91013;-86
2021/06/10 08:26:54;;;;;;;10.57;9.18;;;23.70;98.90;;;;;;4917080;28;92899;-87
2021/06/10 08:29:19;;;;;;;10.38;8.68;;;23.90;98.80;;;;;;4923365;28;92279;-87
2021/06/10 08:31:46;;;;;;;10.98;8.32;;;23.90;98.50;;;;;;4920025;28;92366;-86
2021/06/10 08:34:12;;;;;;;10.20;8.88;;;24.00;97.80;;;;;;4926551;28;92061;-86
2021/06/10 08:36:38;;;;;;;10.85;9.85;;;23.90;96.70;;;;;;4915619;28;92386;-87
2021/06/10 08:39:05;;;;;;;10.30;9.30;;;24.10;96.90;;;;;;4915519;28;92358;-86
2021/06/10 08:41:33;;;;;;;11.18;10.18;;;24.00;96.20;;;;;;4916093;28;92463;-86
2021/06/10 08:44:00;;;;;;;11.23;10.13;;;24.10;96.40;;;;;;4919800;28;91901;-86
2021/06/10 08:46:27;;;;;;;10.52;9.43;;;24.30;97.20;;;;;;4929056;28;91768;-86
2021/06/10 08:48:53;;;;;;;9.50;8.50;;;24.40;97.20;;;;;;4925597;28;91298;-86
2021/06/10 08:51:20;;;;;;;9.93;9.02;;;24.50;95.80;;;;;;4928500;28;91590;-86
2021/06/10 08:53:46;;;;;;;11.27;10.18;;;24.90;96.20;;;;;;4917400;28;91306;-87
2021/06/10 08:56:12;;;;;;;13.48;9.95;;;24.80;94.10;;;;;;4928497;28;92737;-87
2021/06/10 08:58:38;;;;;;;13.00;9.32;;;24.90;94.90;;;;;;4925195;28;92331;-87
2021/06/10 09:01:11;;;;;;;11.40;10.30;;;24.90;94.30;;;;;;4920122;28;91891;-87
2021/06/10 09:03:37;;;;;;;8.93;8.00;;;25.00;94.80;;;;;;4913163;28;91957;-86
2021/06/10 09:06:16;;;;;;;9.38;8.38;;;25.30;95.00;;;;;;4921277;28;92620;-87
2021/06/10 09:08:44;;;;;;;11.20;10.10;;;25.70;94.10;;;;;;4930236;28;91987;-87
2021/06/10 09:11:13;;;;;;;11.10;10.02;;;26.10;94.00;;;;;;4929019;28;91984;-87
2021/06/10 09:13:50;;;;;;;10.40;9.50;;;27.00;91.90;;;;;;4919872;28;90917;-87
2021/06/10 09:16:34;;;;;;;9.70;8.52;;;26.90;91.60;;;;;;4912665;28;92086;-87
2021/06/10 09:19:12;;;;;;;10.65;9.65;;;28.30;87.80;;;;;;4917192;28;92220;-87
2021/06/10 09:21:42;;;;;;;11.23;10.23;;;28.40;82.90;;;;;;4928042;28;93048;-87
2021/06/10 09:24:24;;;;;;;10.05;9.25;;;29.30;79.50;;;;;;4925387;28;92049;-87
2021/06/10 09:27:04;;;;;;;10.68;9.77;;;29.50;78.50;;;;;;4913483;28;92525;-87
2021/06/10 09:29:39;;;;;;;;;;;30.60;71.50;;;;;;4923518;28;91649;-87
2021/06/10 09:32:30;;;;;;;8.10;7.30;;;31.50;69.70;;;;;;4914044;28;91825;-87
2021/06/10 09:35:04;;;;;;;7.28;6.70;;;32.50;65.70;;;;;;4923422;28;92019;-87
2021/06/10 09:37:33;;;;;;;7.13;6.53;;;33.90;60.30;;;;;;4920679;28;92031;-87
2021/06/10 09:40:12;;;;;;;7.55;6.88;;;34.50;55.00;;;;;;4927629;28;92387;-87
2021/06/10 09:42:40;;;;;;;8.63;7.78;;;35.40;54.90;;;;;;4916913;28;91623;-87
2021/06/10 09:45:09;;;;;;;7.75;7.13;;;36.20;51.50;;;;;;4921422;28;92024;-87
2021/06/10 09:47:36;;;;;;;10.10;9.20;;;37.60;48.00;;;;;;4912495;28;93271;-86
2021/06/10 09:50:19;;;;;;;9.45;8.75;;;37.60;48.40;;;;;;4925634;28;94335;-86
2021/06/10 09:52:56;;;;;;;10.43;9.70;;;38.40;44.80;;;;;;4920813;28;91968;-87
2021/06/10 09:55:46;;;;;;;8.73;8.13;;;38.90;44.70;;;;;;4916186;28;91848;-86
2021/06/10 09:58:14;;;;;;;10.98;9.63;;;39.50;43.20;;;;;;4917266;28;92855;-86
2021/06/10 10:00:47;;;;;;;7.82;7.22;;;40.10;43.10;;;;;;4931256;28;92065;-87
2021/06/10 10:03:41;;;;;;;9.52;8.63;;;40.40;40.70;;;;;;4931086;28;91850;-86
2021/06/10 10:06:26;;;;;;;9.40;8.68;;;41.30;38.70;;;;;;4927769;28;91319;-85
2021/06/10 10:08:59;;;;;;;8.98;8.35;;;41.50;38.30;;;;;;4930297;28;92661;-86
2021/06/10 10:11:26;;;;;;;7.60;7.00;;;41.60;37.70;;;;;;4933769;28;92548;-86
2021/06/10 10:13:54;;;;;;;7.57;6.97;;;41.60;37.90;;;;;;4931544;28;92472;-87
2021/06/10 10:16:22;;;;;;;9.05;8.45;;;42.20;37.40;;;;;;4924165;28;91374;-85
2021/06/10 10:18:50;;;;;;;9.27;8.48;;;42.50;37.30;;;;;;4927887;28;92217;-86
2021/06/10 10:21:16;;;;;;;7.43;6.82;;;43.00;36.80;;;;;;4918771;28;92025;-86
2021/06/10 10:23:42;;;;;;;8.10;7.40;;;43.00;36.40;;;;;;4927067;28;92487;-87
2021/06/10 10:26:08;;;;;;;9.43;8.63;;;43.70;36.70;;;;;;4921545;28;92158;-86
2021/06/10 10:28:35;;;;;;;8.00;7.25;;;43.90;35.90;;;;;;4920924;28;92642;-84
2021/06/10 10:31:10;;;;;;;9.60;8.93;;;44.10;35.20;;;;;;4922327;28;93274;-84
2021/06/10 10:33:46;;;;;;;8.35;7.85;;;44.30;34.40;;;;;;4921388;28;91625;-86
2021/06/10 10:36:29;;;;;;;9.52;8.82;;;44.60;34.10;;;;;;4926129;28;91938;-84
2021/06/10 10:39:02;;;;;;;9.02;8.43;;;45.00;33.80;;;;;;4919554;28;93123;-86
2021/06/10 10:41:29;;;;;;;8.68;8.07;;;44.90;32.70;;;;;;4924206;28;92341;-86
2021/06/10 10:44:11;;;;;;;8.75;8.25;;;45.00;33.50;;;;;;4927557;28;92105;-84
2021/06/10 10:46:37;;;;;;;9.35;8.75;;;45.30;32.90;;;;;;4918449;28;93309;-85
2021/06/10 10:49:22;;;;;;;5.95;5.60;;;45.60;33.80;;;;;;4922099;28;92651;-85
2021/06/10 10:51:48;;;;;;;9.68;9.07;;;45.90;31.40;;;;;;4923215;28;92127;-86
2021/06/10 10:54:30;;;;;;;6.60;6.15;;;45.90;32.10;;;;;;4927481;28;91950;-86
2021/06/10 10:56:56;;;;;;;6.97;6.57;;;45.50;32.00;;;;;;4920669;28;91801;-86
2021/06/10 10:59:23;;;;;;;6.40;6.00;;;45.80;31.90;;;;;;4925446;28;92480;-87
2021/06/10 11:02:11;;;;;;;8.38;7.78;;;46.10;30.90;;;;;;4924114;28;91924;-87
2021/06/10 11:04:55;;;;;;;8.50;7.95;;;46.30;30.50;;;;;;4935337;28;92829;-86
2021/06/10 11:07:33;;;;;;;8.25;7.75;;;46.30;30.00;;;;;;4933749;28;91831;-86
2021/06/10 11:10:03;;;;;;;9.40;8.77;;;46.20;30.30;;;;;;4929803;28;92437;-86
2021/06/10 11:12:42;;;;;;;9.63;9.02;;;46.20;30.10;;;;;;4949530;28;92786;-85
2021/06/10 11:15:55;;;;;;;9.48;8.88;;;46.30;31.50;;;;;;4955227;28;91817;-84
2021/06/10 11:18:44;;;;;;;10.38;9.68;;;46.70;31.10;;;;;;4896080;28;91800;-86
2021/06/10 11:21:12;;;;;;;9.10;8.40;;;47.30;30.00;;;;;;4917040;28;93311;-85
2021/06/10 11:23:38;;;;;;;9.65;9.05;;;47.20;31.10;;;;;;4921927;28;91949;-85
2021/06/10 11:26:17;;;;;;;9.82;9.20;;;47.00;30.10;;;;;;4932579;28;91942;-86
2021/06/10 11:28:43;;;;;;;10.35;9.75;;;47.10;30.00;;;;;;4920453;28;91706;-86
2021/06/10 11:31:21;;;;;;;11.50;10.80;;;47.10;31.00;;;;;;4913903;28;93549;-86
2021/06/10 11:33:53;;;;;;;10.67;10.07;;;47.60;31.00;;;;;;4918041;28;92341;-86
2021/06/10 11:36:19;;;;;;;10.13;9.32;;;47.30;30.40;;;;;;4923791;28;92078;-86
2021/06/10 11:38:50;;;;;;;9.57;8.88;;;47.20;30.90;;;;;;4929833;28;92172;-86
2021/06/10 11:41:26;;;;;;;10.57;9.85;;;47.20;30.10;;;;;;4915785;28;93644;-86
2021/06/10 11:43:55;;;;;;;10.40;9.70;;;47.10;30.50;;;;;;4925121;28;92007;-85
2021/06/10 11:46:30;;;;;;;9.73;9.18;;;47.40;29.80;;;;;;4924007;28;92154;-85
2021/06/10 11:48:55;;;;;;;9.90;9.25;;;47.40;29.80;;;;;;4929469;28;91059;-86
2021/06/10 11:51:24;;;;;;;9.10;8.60;;;47.30;29.50;;;;;;4927575;28;92827;-87
2021/06/10 11:53:51;;;;;;;9.40;8.80;;;47.30;29.70;;;;;;4929018;28;91950;-86
2021/06/10 11:56:27;;;;;;;7.97;7.47;;;47.30;29.30;;;;;;4923733;28;92837;-85
2021/06/10 11:58:56;;;;;;;9.43;8.93;;;47.70;28.90;;;;;;4930701;28;92240;-85
2021/06/10 12:01:21;;;;;;;10.85;10.15;;;47.80;28.80;;;;;;4934465;28;92239;-86
2021/06/10 12:03:47;;;;;;;10.20;9.50;;;47.80;28.90;;;;;;4926467;28;92856;-86
2021/06/10 12:06:16;;;;;;;9.05;8.55;;;47.50;29.80;;;;;;4926091;28;93125;-86
2021/06/10 12:08:44;;;;;;;9.15;8.65;;;47.30;29.00;;;;;;4928228;28;91996;-86
2021/06/10 12:11:13;;;;;;;9.60;9.00;;;47.40;29.70;;;;;;4925600;28;92718;-86
2021/06/10 12:13:47;;;;;;;;;;;47.20;29.60;;;;;;4922632;28;91549;-85
2021/06/10 12:16:14;;;;;;;9.50;9.00;;;47.20;29.90;;;;;;4929851;28;92044;-86
2021/06/10 12:18:42;;;;;;;8.63;8.20;;;47.00;29.60;;;;;;4914977;28;92515;-86
2021/06/10 12:21:10;;;;;;;9.52;8.93;;;47.30;29.50;;;;;;4923583;28;93085;-86
2021/06/10 12:23:52;;;;;;;8.60;8.10;;;47.40;29.70;;;;;;4920970;28;94122;-87
2021/06/10 12:26:23;;;;;;;8.60;8.13;;;47.40;29.20;;;;;;4931065;28;91979;-87
2021/06/10 12:28:54;;;;;;;9.52;9.02;;;47.20;29.20;;;;;;4920948;28;91669;-86
2021/06/10 12:31:24;;;;;;;9.02;8.52;;;47.20;29.40;;;;;;4926974;28;91612;-86
2021/06/10 12:33:52;;;;;;;8.77;8.27;;;46.90;29.60;;;;;;4923872;28;92071;-86
2021/06/10 12:36:39;;;;;;;7.53;6.75;;;46.50;30.70;;;;;;4925064;28;92114;-86
2021/06/10 12:39:17;;;;;;;9.20;8.60;;;46.60;29.10;;;;;;4922124;28;91964;-86
2021/06/10 12:41:47;;;;;;;6.00;5.60;;;46.60;29.50;;;;;;4930048;28;92020;-86
2021/06/10 12:44:13;;;;;;;8.05;7.55;;;46.50;29.50;;;;;;4915157;28;92041;-86
2021/06/10 12:46:48;;;;;;;8.85;8.25;;;46.50;29.40;;;;;;4922383;28;92872;-86
2021/06/10 12:49:16;;;;;;;8.63;8.13;;;46.50;29.20;;;;;;4915065;28;91924;-86
2021/06/10 12:51:46;;;;;;;8.25;7.80;;;45.60;29.40;;;;;;4920614;28;93341;-86
2021/06/10 12:54:16;;;;;;;8.52;8.02;;;44.70;30.00;;;;;;4921068;28;92117;-86
2021/06/10 12:56:53;;;;;;;8.27;7.88;;;44.50;30.40;;;;;;4929609;28;91650;-85
2021/06/10 12:59:26;;;;;;;7.90;7.50;;;43.80;30.60;;;;;;4918717;28;91967;-84
2021/06/10 13:02:01;;;;;;;8.02;7.45;;;43.50;30.40;;;;;;4930851;28;92285;-85
2021/06/10 13:04:30;;;;;;;8.10;7.70;;;43.30;31.00;;;;;;4933444;28;91960;-84
2021/06/10 13:06:56;;;;;;;8.25;7.55;;;43.00;31.10;;;;;;4927447;28;91892;-85
2021/06/10 13:09:23;;;;;;;7.68;7.20;;;43.00;30.10;;;;;;4927760;28;91590;-86
2021/06/10 13:12:20;;;;;;;7.90;7.43;;;42.70;30.70;;;;;;4930162;28;93352;-87
2021/06/10 13:15:04;;;;;;;7.47;7.07;;;42.40;31.50;;;;;;4915994;28;93368;-85
2021/06/10 13:17:50;;;;;;;7.63;7.05;;;42.10;30.30;;;;;;4917395;28;91442;-85
2021/06/10 13:20:47;;;;;;;7.78;7.32;;;41.40;32.10;;;;;;4917464;28;92053;-87
2021/06/10 13:23:34;;;;;;;7.80;7.40;;;41.10;31.00;;;;;;4922962;28;92704;-86
2021/06/10 13:26:09;;;;;;;7.13;6.72;;;40.70;31.20;;;;;;4918755;28;94803;-86
2021/06/10 13:28:36;;;;;;;7.20;6.80;;;39.60;31.80;;;;;;4916740;28;92018;-86
2021/06/10 13:31:23;;;;;;;6.90;6.38;;;39.40;32.60;;;;;;4913408;28;90890;-86
2021/06/10 13:33:50;;;;;;;7.22;6.80;;;39.60;32.20;;;;;;4915278;28;92708;-86
2021/06/10 13:36:22;;;;;;;6.93;6.43;;;39.40;32.70;;;;;;4920651;28;92303;-85
2021/06/10 13:38:48;;;;;;;7.03;6.63;;;39.00;32.60;;;;;;4915956;28;92978;-84
2021/06/10 13:41:15;;;;;;;6.93;6.43;;;38.70;33.10;;;;;;4913535;28;92146;-84
2021/06/10 13:43:44;;;;;;;6.65;6.25;;;38.70;33.90;;;;;;4918572;28;92239;-86
2021/06/10 13:46:11;;;;;;;6.50;6.00;;;38.50;33.10;;;;;;4915546;28;92604;-84
2021/06/10 13:48:36;;;;;;;6.82;6.43;;;38.60;33.60;;;;;;4915659;28;92047;-85
2021/06/10 13:51:02;;;;;;;7.03;6.57;;;38.20;33.50;;;;;;4918060;28;93329;-86
2021/06/10 13:53:29;;;;;;;6.57;6.20;;;37.90;33.80;;;;;;4910565;28;93500;-85
2021/06/10 13:55:57;;;;;;;6.85;6.50;;;37.80;34.80;;;;;;4928907;28;92017;-86
2021/06/10 13:58:23;;;;;;;6.65;6.32;;;37.90;34.90;;;;;;4918698;28;92139;-86
2021/06/10 14:00:50;;;;;;;6.88;6.47;;;37.70;35.10;;;;;;4923392;28;92382;-86
2021/06/10 14:03:18;;;;;;;7.28;6.88;;;37.60;35.90;;;;;;4922414;28;92801;-86
2021/06/10 14:05:45;;;;;;;6.90;6.50;;;37.40;36.50;;;;;;4909611;28;92287;-84
2021/06/10 14:08:11;;;;;;;7.93;7.35;;;37.50;35.80;;;;;;4912643;28;91476;-85
2021/06/10 14:10:36;;;;;;;7.43;6.93;;;37.40;36.60;;;;;;4924743;28;92036;-85
2021/06/10 14:13:02;;;;;;;7.22;6.63;;;37.00;36.50;;;;;;4913175;28;92005;-85
2021/06/10 14:15:28;;;;;;;7.38;6.88;;;36.70;37.40;;;;;;4914852;28;92191;-85
2021/06/10 14:17:54;;;;;;;7.18;6.78;;;36.60;37.20;;;;;;4916912;28;92022;-85
2021/06/10 14:20:20;;;;;;;7.25;6.85;;;36.20;37.50;;;;;;4927358;28;91111;-85
2021/06/10 14:22:45;;;;;;;7.65;7.18;;;36.10;37.80;;;;;;4921660;28;92086;-85
2021/06/10 14:25:11;;;;;;;7.70;7.15;;;35.70;38.00;;;;;;4917797;28;91980;-85
2021/06/10 14:27:39;;;;;;;7.10;6.70;;;35.40;38.40;;;;;;4918389;28;92869;-85
2021/06/10 14:30:28;;;;;;;7.45;6.95;;;35.30;38.20;;;;;;4923215;28;91529;-85
2021/06/10 14:32:56;;;;;;;7.30;6.80;;;35.20;38.50;;;;;;4917197;28;92787;-85
2021/06/10 14:35:23;;;;;;;7.13;6.63;;;35.00;38.90;;;;;;4921734;28;92434;-84
2021/06/10 14:37:50;;;;;;;6.97;6.57;;;34.70;38.60;;;;;;4906366;28;92395;-86
2021/06/10 14:40:16;;;;;;;6.63;6.22;;;34.50;38.20;;;;;;4922848;28;91613;-83
2021/06/10 14:42:43;;;;;;;7.00;6.50;;;34.10;39.00;;;;;;4912806;28;92246;-83
2021/06/10 14:45:10;;;;;;;7.20;6.75;;;33.70;39.70;;;;;;4917638;28;92339;-84
2021/06/10 14:47:37;;;;;;;6.45;6.13;;;33.50;40.10;;;;;;4915592;28;92046;-85
2021/06/10 14:50:04;;;;;;;6.80;6.40;;;33.30;39.10;;;;;;4911989;28;92128;-84
2021/06/10 14:52:29;;;;;;;6.47;6.07;;;33.00;39.80;;;;;;4919437;28;93200;-84
2021/06/10 14:54:55;;;;;;;6.82;6.40;;;32.90;40.30;;;;;;4928254;28;92334;-84
2021/06/10 14:57:22;;;;;;;7.20;6.70;;;32.80;41.10;;;;;;4917168;28;92014;-85
2021/06/10 14:59:47;;;;;;;7.18;6.68;;;32.60;41.60;;;;;;4918380;28;91961;-85
2021/06/10 15:02:13;;;;;;;6.57;6.18;;;32.40;41.80;;;;;;4920431;28;91971;-85
2021/06/10 15:04:39;;;;;;;7.75;7.15;;;32.40;42.30;;;;;;4921065;28;92247;-86
2021/06/10 15:07:04;;;;;;;6.70;6.30;;;32.30;42.70;;;;;;4915937;28;92184;-85
2021/06/10 15:09:30;;;;;;;6.50;6.10;;;32.30;42.20;;;;;;4924637;28;91294;-85
2021/06/10 15:11:56;;;;;;;6.60;6.10;;;32.10;41.80;;;;;;4919606;28;93675;-85
2021/06/10 15:14:21;;;;;;;6.78;6.30;;;31.90;42.30;;;;;;4925901;28;91748;-84
2021/06/10 15:16:47;;;;;;;6.30;5.90;;;31.60;42.00;;;;;;4919053;28;92887;-84
2021/06/10 15:19:13;;;;;;;6.95;6.35;;;31.50;43.10;;;;;;4920658;28;91747;-83
2021/06/10 15:21:40;;;;;;;6.80;6.30;;;31.40;43.40;;;;;;4925577;28;92252;-84
2021/06/10 15:24:07;;;;;;;6.63;6.13;;;31.30;43.30;;;;;;4924262;28;92017;-83
2021/06/10 15:26:32;;;;;;;6.30;5.90;;;31.20;44.00;;;;;;4931219;28;92157;-83
2021/06/10 15:28:58;;;;;;;6.50;6.10;;;31.10;44.60;;;;;;4916225;28;92656;-83
2021/06/10 15:31:24;;;;;;;6.63;6.13;;;31.10;44.40;;;;;;4915105;28;92263;-84
2021/06/10 15:33:50;;;;;;;6.57;6.00;;;31.20;44.70;;;;;;4926984;28;93115;-83
2021/06/10 15:36:17;;;;;;;6.50;6.10;;;31.00;43.00;;;;;;4919297;28;91803;-84
2021/06/10 15:38:43;;;;;;;6.40;5.93;;;30.90;43.00;;;;;;4913934;28;92212;-83
2021/06/10 15:41:10;;;;;;;6.40;5.90;;;30.60;42.80;;;;;;4913267;28;92534;-83
2021/06/10 15:43:37;;;;;;;6.35;5.95;;;30.40;44.30;;;;;;4927618;28;93365;-84
2021/06/10 15:46:03;;;;;;;6.63;6.20;;;30.20;43.30;;;;;;4925211;28;92050;-84
2021/06/10 15:48:29;;;;;;;6.28;5.80;;;30.20;43.80;;;;;;4926606;28;91432;-84
2021/06/10 15:50:55;;;;;;;6.50;6.00;;;30.00;44.40;;;;;;4934475;28;92192;-83
2021/06/10 15:53:21;;;;;;;6.90;6.20;;;29.90;43.80;;;;;;4937715;28;91270;-83
2021/06/10 15:55:47;;;;;;;6.90;6.30;;;29.70;43.40;;;;;;4931479;28;91970;-82
2021/06/10 15:58:12;;;;;;;6.38;5.97;;;29.60;44.70;;;;;;4937099;28;90770;-82
2021/06/10 16:00:39;;;;;;;6.40;5.90;;;29.50;44.80;;;;;;4933257;28;92497;-84